Time;durP1;ratioP1;P1;durP2;ratioP2;P2;SDS_P1;SDS_P2;PMS_P1;PMS_P2;Temp;Humidity;BMP_temperature;BMP_pressure;BME280_temperature;BME280_humidity;BME280_pressure;Samples;Min_cycle;Max_cycle;Signal;HPM_P1;HPM_P2
2023/03/22 00:00:48;;;;;;;26.63;24.98;;;;;;;16.03;56.29;100859.81;5014611;28;20025;-80
2023/03/22 00:03:14;;;;;;;26.00;24.52;;;;;;;16.02;56.16;100863.59;5014279;28;20470;-80
2023/03/22 00:05:40;;;;;;;28.50;26.67;;;;;;;16.01;55.92;100856.53;5014573;28;20034;-79
2023/03/22 00:08:06;;;;;;;25.88;24.30;;;;;;;16.00;56.37;100853.00;5014202;28;20034;-79
2023/03/22 00:10:32;;;;;;;25.80;24.10;;;;;;;15.98;56.14;100843.47;5013390;28;20034;-81
2023/03/22 00:12:59;;;;;;;26.00;24.58;;;;;;;15.97;56.37;100839.91;5013538;28;20168;-80
2023/03/22 00:15:25;;;;;;;25.08;23.67;;;;;;;15.96;56.00;100840.22;5013746;28;20033;-79
2023/03/22 00:17:51;;;;;;;27.38;25.30;;;;;;;15.96;55.94;100837.47;5014457;28;20034;-79
2023/03/22 00:20:16;;;;;;;25.42;24.08;;;;;;;15.92;56.35;100831.75;5014312;28;20390;-78
2023/03/22 00:22:42;;;;;;;27.95;26.48;;;;;;;15.92;55.78;100829.03;5014184;28;20041;-78
2023/03/22 00:25:09;;;;;;;26.77;25.33;;;;;;;15.90;56.29;100825.78;5012695;28;20521;-80
2023/03/22 00:27:35;;;;;;;27.15;25.25;;;;;;;15.89;56.40;100828.78;5013876;28;20030;-79
2023/03/22 00:30:00;;;;;;;25.23;23.85;;;;;;;15.89;56.03;100817.88;5013741;28;20477;-79
2023/03/22 00:32:26;;;;;;;24.75;23.45;;;;;;;15.87;56.25;100817.34;5012673;28;20033;-81
2023/03/22 00:34:51;;;;;;;26.33;24.67;;;;;;;15.85;56.07;100809.47;5013839;28;20025;-79
2023/03/22 00:37:17;;;;;;;25.85;24.42;;;;;;;15.84;56.23;100815.16;5013824;28;20087;-79
2023/03/22 00:39:43;;;;;;;26.50;25.02;;;;;;;15.83;56.21;100814.34;5013735;28;20525;-79
2023/03/22 00:42:08;;;;;;;24.45;23.15;;;;;;;15.81;56.27;100808.38;5013481;28;20057;-79
2023/03/22 00:44:34;;;;;;;24.48;23.20;;;;;;;15.79;56.21;100805.91;5028932;28;20034;-80
2023/03/22 00:47:00;;;;;;;25.80;24.25;;;;;;;15.78;55.93;100798.03;5029208;28;20061;-78
2023/03/22 00:49:26;;;;;;;25.17;23.30;;;;;;;15.76;56.20;100802.94;5013534;28;20026;-78
2023/03/22 00:51:52;;;;;;;26.02;24.55;;;;;;;15.76;56.24;100792.03;5013573;28;20033;-78
2023/03/22 00:54:18;;;;;;;24.98;23.50;;;;;;;15.74;55.82;100789.59;5013607;28;20063;-79
2023/03/22 00:56:48;;;;;;;25.85;24.23;;;;;;;15.73;56.19;100792.59;5014312;28;20100;-79
2023/03/22 00:59:14;;;;;;;24.98;23.67;;;;;;;15.72;55.92;100788.22;5014975;28;20072;-79
2023/03/22 01:01:40;;;;;;;26.67;24.73;;;;;;;15.72;56.02;100780.06;5014290;28;20153;-79
2023/03/22 01:04:05;;;;;;;24.60;23.30;;;;;;;15.70;56.00;100777.63;5014024;28;20069;-79
2023/03/22 01:06:32;;;;;;;26.50;24.77;;;;;;;15.69;56.15;100775.97;5013390;28;20474;-79
2023/03/22 01:08:58;;;;;;;26.88;25.27;;;;;;;15.67;55.86;100767.22;5015044;28;20037;-79
2023/03/22 01:11:24;;;;;;;25.33;23.83;;;;;;;15.66;55.79;100754.72;5017329;28;20038;-80
2023/03/22 01:13:50;;;;;;;27.20;25.60;;;;;;;15.65;56.06;100755.81;5017709;28;20037;-80
2023/03/22 01:16:17;;;;;;;24.75;23.35;;;;;;;15.65;55.94;100741.38;5017296;28;20390;-80
2023/03/22 01:18:43;;;;;;;26.10;23.67;;;;;;;15.64;56.28;100731.59;5017235;28;20033;-80
2023/03/22 01:21:09;;;;;;;25.67;24.27;;;;;;;15.62;56.08;100726.41;5017469;28;20084;-80
2023/03/22 01:23:35;;;;;;;25.98;24.35;;;;;;;15.61;56.29;100723.97;5017138;28;20091;-80
2023/03/22 01:26:00;;;;;;;28.83;27.02;;;;;;;15.59;55.94;100722.31;5017406;28;20561;-80
2023/03/22 01:28:27;;;;;;;27.45;25.95;;;;;;;15.58;55.90;100719.91;5016995;28;20053;-80
2023/03/22 01:30:52;;;;;;;24.67;23.38;;;;;;;15.55;55.96;100710.38;5015317;28;20069;-79
2023/03/22 01:42:30;;;;;;;23.90;22.63;;;;;;;15.42;56.34;100694.63;5258148;23;20085;-79
2023/03/22 01:45:15;;;;;;;25.25;23.85;;;;;;;15.40;56.14;100688.66;5034431;28;20567;-67
2023/03/22 01:47:43;;;;;;;25.77;24.33;;;;;;;15.38;56.42;100679.94;5036423;28;20033;-67
2023/03/22 01:50:09;;;;;;;23.50;22.20;;;;;;;15.38;56.25;100674.50;5036162;28;20022;-67
2023/03/22 01:52:36;;;;;;;27.45;25.75;;;;;;;15.39;56.30;100670.66;5034823;28;20040;-67
2023/03/22 01:55:05;;;;;;;28.23;26.58;;;;;;;15.38;56.29;100669.03;5036123;28;20527;-67
2023/03/22 01:57:36;;;;;;;25.90;24.23;;;;;;;15.37;56.32;100667.41;5036436;28;20446;-67
2023/03/22 02:00:08;;;;;;;25.35;23.95;;;;;;;15.36;56.26;100658.41;5036754;28;20029;-67
2023/03/22 02:02:33;;;;;;;24.25;22.83;;;;;;;15.36;56.26;100657.63;5035996;28;20359;-68
2023/03/22 02:05:00;;;;;;;26.48;24.73;;;;;;;15.35;56.25;100659.53;5036421;28;20033;-67
2023/03/22 02:07:26;;;;;;;25.80;24.30;;;;;;;15.35;56.22;100656.81;5036678;28;20037;-67
2023/03/22 02:09:52;;;;;;;25.00;23.58;;;;;;;15.36;56.36;100654.88;5035348;28;20358;-67
2023/03/22 02:12:43;;;;;;;25.67;24.08;;;;;;;15.34;56.10;100648.91;5035756;28;20144;-67
2023/03/22 02:15:16;;;;;;;24.92;23.33;;;;;;;15.30;56.07;100648.66;5036325;28;20061;-66
2023/03/22 02:17:50;;;;;;;23.88;22.67;;;;;;;15.30;56.07;100645.13;5035928;28;20060;-68
2023/03/22 02:20:37;;;;;;;27.95;26.30;;;;;;;15.29;56.10;100647.00;5035904;28;20025;-66
2023/03/22 02:23:29;;;;;;;24.58;23.00;;;;;;;15.25;56.18;100645.16;5034861;28;20037;-66
2023/03/22 02:26:42;;;;;;;25.48;23.70;;;;;;;15.22;56.11;100632.06;5034796;28;20033;-66
2023/03/22 02:29:29;;;;;;;22.98;21.75;;;;;;;15.21;56.46;100635.88;5035442;28;20121;-67
2023/03/22 02:32:21;;;;;;;25.05;23.50;;;;;;;15.18;56.44;100637.25;5034113;28;20079;-67
2023/03/22 02:35:15;;;;;;;25.60;23.92;;;;;;;15.17;56.50;100637.53;5035742;28;20029;-67
2023/03/22 02:37:52;;;;;;;26.77;24.98;;;;;;;15.19;56.52;100635.34;5035154;28;20400;-66
2023/03/22 02:40:37;;;;;;;27.67;25.88;;;;;;;15.18;56.43;100622.84;5035296;28;20025;-67
2023/03/22 02:43:22;;;;;;;28.08;25.98;;;;;;;15.20;56.22;100631.56;5034579;28;20045;-67
2023/03/22 02:46:04;;;;;;;24.23;22.90;;;;;;;15.17;56.42;100632.06;5035600;28;20036;-67
2023/03/22 02:48:41;;;;;;;24.38;23.08;;;;;;;15.18;56.32;100620.13;5035418;28;20385;-68
2023/03/22 02:51:15;;;;;;;28.00;25.83;;;;;;;15.19;56.58;100621.75;5034927;28;20037;-67
2023/03/22 02:53:47;;;;;;;26.25;24.10;;;;;;;15.18;56.18;100618.22;5035344;28;20025;-67
2023/03/22 02:56:20;;;;;;;24.77;23.38;;;;;;;15.19;56.03;100608.13;5035061;28;20163;-67
2023/03/22 02:58:50;;;;;;;26.60;24.90;;;;;;;15.19;56.32;100602.69;5035443;28;20029;-69
2023/03/22 03:01:25;;;;;;;26.15;24.50;;;;;;;15.18;56.01;100599.16;5034931;28;20033;-67
2023/03/22 03:03:58;;;;;;;26.23;24.65;;;;;;;15.17;56.11;100597.53;5034680;28;20076;-67
2023/03/22 03:06:29;;;;;;;24.70;22.95;;;;;;;15.17;56.13;100594.00;5035128;28;20044;-68
2023/03/22 03:08:57;;;;;;;25.23;23.52;;;;;;;15.16;56.43;100595.91;5034366;28;20509;-80
2023/03/22 03:11:23;;;;;;;23.92;22.63;;;;;;;15.15;56.35;100597.00;5035406;28;20092;-81
2023/03/22 03:13:49;;;;;;;27.08;25.27;;;;;;;15.17;56.19;100594.00;5050590;28;20065;-79
2023/03/22 03:16:18;;;;;;;25.05;23.55;;;;;;;15.15;56.09;100583.41;5034896;28;20042;-80
2023/03/22 03:19:02;;;;;;;26.13;24.33;;;;;;;15.13;55.99;100588.28;5034816;28;20033;-81
2023/03/22 03:21:45;;;;;;;25.13;23.55;;;;;;;15.11;56.44;100591.28;5034882;28;20033;-80
2023/03/22 03:24:10;;;;;;;26.70;25.05;;;;;;;15.11;56.34;100596.72;5034949;28;20041;-80
2023/03/22 03:27:09;;;;;;;25.17;23.40;;;;;;;15.09;56.30;100593.50;5034539;28;20030;-79
2023/03/22 03:29:40;;;;;;;24.27;22.88;;;;;;;15.08;56.20;100585.59;5034991;28;20097;-80
2023/03/22 03:32:34;;;;;;;26.45;24.60;;;;;;;15.06;56.41;100588.56;5034027;28;20036;-80
2023/03/22 03:35:39;;;;;;;26.67;25.13;;;;;;;15.03;56.60;100597.28;5033645;28;20358;-80
2023/03/22 03:38:16;;;;;;;27.42;25.20;;;;;;;15.05;56.01;100595.13;4972987;28;20045;-80
2023/03/22 03:40:49;;;;;;;25.45;24.02;;;;;;;15.06;56.34;100590.50;5028536;28;20037;-79
2023/03/22 03:43:15;;;;;;;24.42;23.02;;;;;;;15.07;56.51;100601.09;5034713;28;20149;-79
2023/03/22 03:45:41;;;;;;;24.65;22.73;;;;;;;15.07;56.44;100601.09;5034240;28;20040;-79
2023/03/22 03:48:17;;;;;;;25.98;24.13;;;;;;;15.08;56.45;100604.63;5034897;28;20041;-78
2023/03/22 03:50:42;;;;;;;25.00;23.35;;;;;;;15.06;56.29;100606.81;5034299;28;20034;-80
2023/03/22 03:53:08;;;;;;;25.45;23.63;;;;;;;15.06;56.42;100604.91;5034121;28;20459;-79
2023/03/22 03:55:33;;;;;;;24.92;23.42;;;;;;;15.06;56.65;100598.66;5034132;28;20405;-81
2023/03/22 03:57:59;;;;;;;24.60;23.15;;;;;;;15.06;56.35;100594.03;5034197;28;20017;-79
2023/03/22 04:00:24;;;;;;;25.38;23.33;;;;;;;15.06;56.48;100602.19;5034061;28;20438;-80
2023/03/22 04:02:49;;;;;;;24.27;22.92;;;;;;;15.07;56.48;100606.56;5033085;28;20500;-77
2023/03/22 04:05:15;;;;;;;24.75;23.35;;;;;;;15.06;56.40;100604.91;5033802;28;20481;-79
2023/03/22 04:07:40;;;;;;;23.58;22.38;;;;;;;15.05;56.10;100597.84;5033860;28;20359;-80
2023/03/22 04:10:07;;;;;;;26.05;24.52;;;;;;;15.04;56.43;100604.34;5034163;28;20048;-81
2023/03/22 04:12:33;;;;;;;24.23;22.80;;;;;;;15.03;56.28;100596.50;5033869;28;20064;-78
2023/03/22 04:14:59;;;;;;;25.35;23.83;;;;;;;15.03;56.51;100589.13;5034389;28;20057;-78
2023/03/22 04:17:27;;;;;;;23.30;22.10;;;;;;;15.03;56.41;100582.88;5033789;28;20025;-79
2023/03/22 04:19:55;;;;;;;23.75;22.15;;;;;;;15.02;56.38;100589.41;5033567;28;20037;-77
2023/03/22 04:22:21;;;;;;;25.40;23.90;;;;;;;15.01;56.64;100580.44;5033583;28;20029;-79
2023/03/22 04:24:48;;;;;;;23.10;21.90;;;;;;;15.01;56.45;100582.34;5033531;28;20045;-78
2023/03/22 04:27:18;;;;;;;22.95;21.55;;;;;;;15.00;56.34;100575.28;5033492;28;20037;-80
2023/03/22 04:29:50;;;;;;;25.42;23.92;;;;;;;15.00;56.22;100584.25;5033791;28;20327;-80
2023/03/22 04:32:18;;;;;;;23.67;22.38;;;;;;;15.01;56.19;100582.34;5034058;28;20362;-80
2023/03/22 04:34:46;;;;;;;23.95;22.58;;;;;;;14.99;56.09;100574.44;5033278;28;20056;-77
2023/03/22 04:37:13;;;;;;;25.17;23.63;;;;;;;15.00;56.12;100575.28;5032222;28;20036;-79
2023/03/22 04:39:38;;;;;;;25.15;23.75;;;;;;;14.97;56.45;100573.94;5033737;28;20112;-80
2023/03/22 04:42:04;;;;;;;24.17;22.88;;;;;;;14.98;56.55;100581.00;5033420;28;20077;-79
2023/03/22 04:44:29;;;;;;;25.02;23.50;;;;;;;14.98;56.15;100581.00;5036002;28;20075;-81
2023/03/22 04:46:55;;;;;;;23.23;21.95;;;;;;;14.98;56.49;100583.72;5037930;28;20044;-77
2023/03/22 04:49:20;;;;;;;25.25;23.60;;;;;;;14.97;56.26;100576.66;5037851;28;20389;-80
2023/03/22 04:51:46;;;;;;;25.67;23.27;;;;;;;14.96;56.60;100569.56;5038315;28;20120;-80
2023/03/22 04:54:11;;;;;;;24.92;23.30;;;;;;;14.95;56.21;100570.66;5038173;28;20516;-80
2023/03/22 04:56:37;;;;;;;24.40;23.08;;;;;;;14.94;56.30;100569.03;5038675;28;20061;-80
2023/03/22 04:59:05;;;;;;;24.80;23.02;;;;;;;14.92;56.18;100563.06;5038047;28;20524;-80
2023/03/22 05:01:31;;;;;;;24.08;22.67;;;;;;;14.92;56.42;100557.63;5038287;28;20056;-79
2023/03/22 05:03:56;;;;;;;25.05;23.08;;;;;;;14.91;56.29;100564.94;5037848;28;20071;-76
2023/03/22 05:06:22;;;;;;;23.73;22.42;;;;;;;14.90;56.25;100557.09;5036569;28;20527;-80
2023/03/22 05:08:47;;;;;;;23.23;21.92;;;;;;;14.89;56.50;100569.03;5037932;28;20029;-79
2023/03/22 05:11:15;;;;;;;24.60;22.77;;;;;;;14.89;56.24;100560.88;5037075;28;20030;-79
2023/03/22 05:13:41;;;;;;;25.65;24.15;;;;;;;14.87;56.55;100557.66;5037012;28;20129;-78
2023/03/22 05:16:08;;;;;;;25.25;23.70;;;;;;;14.87;56.25;100555.72;5036498;28;20429;-79
2023/03/22 05:18:36;;;;;;;22.50;21.25;;;;;;;14.85;56.49;100557.91;5037074;28;20108;-80
2023/03/22 05:21:02;;;;;;;25.10;23.35;;;;;;;14.87;56.71;100565.81;5052311;28;20413;-79
2023/03/22 05:23:28;;;;;;;22.55;21.45;;;;;;;14.86;56.35;100562.25;5036240;28;20053;-79
2023/03/22 05:25:57;;;;;;;22.33;21.23;;;;;;;14.84;56.39;100559.00;5036934;28;20065;-79
2023/03/22 05:28:25;;;;;;;22.92;21.73;;;;;;;14.84;56.55;100556.28;5036736;28;20116;-80
2023/03/22 05:30:50;;;;;;;23.08;21.77;;;;;;;14.84;56.25;100550.00;5035171;28;20037;-79
2023/03/22 05:33:20;;;;;;;24.85;23.45;;;;;;;14.83;56.56;100548.41;5036822;28;20039;-79
2023/03/22 05:35:46;;;;;;;23.20;22.00;;;;;;;14.81;56.29;100548.66;5036738;28;20117;-79
2023/03/22 05:38:11;;;;;;;25.35;23.83;;;;;;;14.82;56.22;100547.59;5036546;28;20037;-80
2023/03/22 05:40:37;;;;;;;22.20;21.00;;;;;;;14.81;56.10;100548.66;5036342;28;20029;-78
2023/03/22 05:43:02;;;;;;;22.92;21.70;;;;;;;14.81;56.03;100545.13;5036225;28;20470;-78
2023/03/22 05:45:28;;;;;;;23.33;22.02;;;;;;;14.81;56.47;100554.09;5035712;28;20029;-79
2023/03/22 05:47:53;;;;;;;22.85;21.45;;;;;;;14.80;56.31;100551.69;5036692;28;20034;-78
2023/03/22 05:50:21;;;;;;;25.75;24.23;;;;;;;14.78;56.32;100564.72;5035289;28;20043;-81
2023/03/22 05:52:48;;;;;;;24.30;22.67;;;;;;;14.78;56.54;100554.66;5035988;28;20037;-82
2023/03/22 05:55:16;;;;;;;24.08;22.77;;;;;;;14.78;56.39;100548.41;5035751;28;20037;-82
2023/03/22 05:57:42;;;;;;;22.50;21.40;;;;;;;14.77;56.48;100550.31;5036190;28;20053;-84
2023/03/22 06:00:12;;;;;;;24.75;23.17;;;;;;;14.78;56.39;100553.84;5036379;28;20064;-82
2023/03/22 06:02:48;;;;;;;22.63;21.52;;;;;;;14.76;56.37;100545.16;5035851;28;20398;-80
2023/03/22 06:05:15;;;;;;;23.25;21.92;;;;;;;14.77;56.07;100554.94;5036255;28;20069;-79
2023/03/22 06:07:41;;;;;;;22.83;21.55;;;;;;;14.76;56.23;100551.41;5036878;28;20356;-83
2023/03/22 06:10:09;;;;;;;23.83;22.45;;;;;;;14.76;56.14;100553.31;5035554;28;20044;-81
2023/03/22 06:12:35;;;;;;;22.30;21.20;;;;;;;14.74;56.14;100555.47;5035848;28;20036;-81
2023/03/22 06:15:00;;;;;;;22.92;21.73;;;;;;;14.74;56.01;100563.63;5036502;28;20108;-80
2023/03/22 06:17:26;;;;;;;21.58;20.45;;;;;;;14.72;56.46;100542.19;5035887;28;20030;-80
2023/03/22 06:19:53;;;;;;;23.15;21.85;;;;;;;14.71;56.29;100551.41;5035213;28;20037;-82
2023/03/22 06:22:19;;;;;;;24.75;23.30;;;;;;;14.70;56.13;100549.78;5035849;28;20038;-81
2023/03/22 06:24:45;;;;;;;22.15;20.98;;;;;;;14.69;56.43;100556.28;5035615;28;20037;-83
2023/03/22 06:27:10;;;;;;;24.52;23.13;;;;;;;14.70;56.22;100549.78;5035048;28;20087;-81
2023/03/22 06:29:36;;;;;;;21.95;20.75;;;;;;;14.69;56.16;100559.84;5035791;28;20039;-82
2023/03/22 06:32:02;;;;;;;21.88;20.67;;;;;;;14.67;56.60;100547.63;5035900;28;20083;-81
2023/03/22 06:34:28;;;;;;;22.05;20.85;;;;;;;14.65;56.54;100547.06;5035492;28;20477;-83
2023/03/22 06:36:54;;;;;;;22.67;21.58;;;;;;;14.65;56.35;100549.78;5035499;28;20038;-84
2023/03/22 06:39:19;;;;;;;23.25;21.95;;;;;;;14.63;56.23;100539.19;5035583;28;20045;-80
2023/03/22 06:41:45;;;;;;;22.17;20.55;;;;;;;14.65;56.27;100545.16;5035326;28;20061;-81
2023/03/22 06:44:11;;;;;;;23.60;22.27;;;;;;;14.65;56.29;100555.22;5035345;28;20064;-81
2023/03/22 06:46:36;;;;;;;23.30;21.90;;;;;;;14.65;56.30;100556.03;5035377;28;20034;-84
2023/03/22 06:49:02;;;;;;;22.02;20.92;;;;;;;14.67;56.54;100553.06;5035391;28;20431;-79
2023/03/22 06:51:27;;;;;;;23.65;22.25;;;;;;;14.67;56.26;100555.78;5035016;28;20475;-79
2023/03/22 06:53:53;;;;;;;21.90;20.80;;;;;;;14.65;56.49;100556.03;5035100;28;20069;-83
2023/03/22 06:56:18;;;;;;;23.73;22.35;;;;;;;14.66;56.09;100560.38;5033913;28;20038;-80
2023/03/22 06:58:44;;;;;;;23.40;22.20;;;;;;;14.65;56.50;100564.19;5035207;28;20120;-80
2023/03/22 07:01:09;;;;;;;22.40;20.98;;;;;;;14.65;56.28;100566.09;5034913;28;20060;-81
2023/03/22 07:03:35;;;;;;;22.63;21.13;;;;;;;14.62;56.13;100556.59;5035566;28;20052;-80
2023/03/22 07:06:06;;;;;;;22.80;21.60;;;;;;;14.63;56.19;100563.66;5034140;28;20029;-81
2023/03/22 07:08:31;;;;;;;22.40;21.30;;;;;;;14.66;56.03;100560.38;5034877;28;20065;-80
2023/03/22 07:10:57;;;;;;;22.98;21.80;;;;;;;14.65;56.14;100557.94;5035341;28;20041;-81
2023/03/22 07:13:22;;;;;;;24.10;22.80;;;;;;;14.64;56.29;100564.47;5034461;28;20381;-82
2023/03/22 07:15:48;;;;;;;21.83;20.65;;;;;;;14.65;56.13;100560.66;5035043;28;20033;-80
2023/03/22 07:18:13;;;;;;;22.75;21.52;;;;;;;14.63;56.18;100571.00;5034971;28;20048;-83
2023/03/22 07:20:40;;;;;;;23.38;22.05;;;;;;;14.63;56.15;100576.44;5034689;28;20029;-81
2023/03/22 07:23:12;;;;;;;22.13;20.92;;;;;;;14.61;56.05;100563.09;5050765;28;20049;-83
2023/03/22 07:25:37;;;;;;;23.10;21.98;;;;;;;14.62;56.27;100572.91;5034720;28;20048;-82
2023/03/22 07:28:02;;;;;;;22.15;20.45;;;;;;;14.62;55.98;100575.63;5035131;28;20029;-83
2023/03/22 07:30:28;;;;;;;24.35;22.90;;;;;;;14.63;56.19;100571.81;5034988;28;20040;-81
2023/03/22 07:32:53;;;;;;;22.95;21.73;;;;;;;14.61;56.14;100568.53;5033195;28;20049;-83
2023/03/22 07:35:19;;;;;;;24.30;22.83;;;;;;;14.61;56.28;100562.28;5034106;28;20037;-79
2023/03/22 07:37:44;;;;;;;21.75;20.55;;;;;;;14.63;56.02;100571.00;5032632;28;20030;-83
2023/03/22 07:40:11;;;;;;;22.00;20.83;;;;;;;14.63;55.98;100568.28;5033955;28;20129;-84
2023/03/22 07:42:36;;;;;;;25.10;23.80;;;;;;;14.59;56.03;100572.63;5034188;28;20081;-76
2023/03/22 07:45:02;;;;;;;22.42;21.23;;;;;;;14.60;55.97;100568.84;5033946;28;20401;-81
2023/03/22 07:47:28;;;;;;;24.33;22.77;;;;;;;14.62;56.04;100566.66;5034033;28;20466;-81
2023/03/22 07:49:53;;;;;;;22.58;21.35;;;;;;;14.65;56.18;100564.19;5034044;28;20048;-80
2023/03/22 07:52:20;;;;;;;24.00;22.70;;;;;;;14.67;56.14;100575.63;5033685;28;20057;-81
2023/03/22 07:54:45;;;;;;;24.23;22.63;;;;;;;14.67;55.91;100559.31;5033931;28;20107;-75
2023/03/22 07:57:10;;;;;;;23.60;22.17;;;;;;;14.61;56.32;100562.28;5034064;28;20049;-81
2023/03/22 07:59:36;;;;;;;23.25;21.63;;;;;;;14.65;55.95;100561.47;5033786;28;20061;-81
2023/03/22 08:02:01;;;;;;;22.92;21.55;;;;;;;14.68;55.78;100566.34;5032760;28;20029;-81
2023/03/22 08:04:27;;;;;;;22.30;21.10;;;;;;;14.69;55.90;100572.59;5033949;28;20037;-86
2023/03/22 08:06:57;;;;;;;24.90;23.52;;;;;;;14.70;56.18;100563.38;5033745;28;20424;-81
2023/03/22 08:09:23;;;;;;;26.08;24.17;;;;;;;14.70;56.04;100576.97;5033933;28;20457;-83
2023/03/22 08:11:48;;;;;;;22.58;21.08;;;;;;;14.68;55.93;100579.94;5032729;28;20139;-82
2023/03/22 08:14:14;;;;;;;23.98;22.55;;;;;;;14.70;56.04;100575.06;5048666;28;20041;-79
2023/03/22 08:16:40;;;;;;;21.40;20.10;;;;;;;14.69;56.12;100565.28;5032318;28;20029;-82
2023/03/22 08:19:05;;;;;;;24.25;22.77;;;;;;;14.68;55.71;100560.94;5033602;28;20037;-85
2023/03/22 08:21:32;;;;;;;24.00;22.58;;;;;;;14.68;55.87;100560.13;5033602;28;20034;-80
2023/03/22 08:23:57;;;;;;;24.30;22.95;;;;;;;14.69;55.97;100556.28;5034293;28;20034;-84
2023/03/22 08:26:23;;;;;;;25.38;23.88;;;;;;;14.73;55.46;100549.22;5033808;28;20035;-79
2023/03/22 08:28:48;;;;;;;22.75;21.45;;;;;;;14.76;55.93;100547.88;5033508;28;20112;-82
2023/03/22 08:31:16;;;;;;;23.17;21.88;;;;;;;14.70;55.88;100544.34;5031907;28;20033;-83
2023/03/22 08:33:41;;;;;;;25.30;23.75;;;;;;;14.76;55.55;100550.59;5033079;28;20033;-82
2023/03/22 08:36:11;;;;;;;23.25;20.98;;;;;;;14.78;55.85;100543.78;5032944;28;20055;-84
2023/03/22 08:38:36;;;;;;;23.52;22.05;;;;;;;14.79;55.81;100550.88;5033002;28;20093;-80
2023/03/22 08:41:02;;;;;;;23.85;22.48;;;;;;;14.79;55.68;100548.16;5033722;28;20030;-80
2023/03/22 08:43:28;;;;;;;23.63;22.05;;;;;;;14.78;55.71;100553.84;5032944;28;20057;-77
2023/03/22 08:45:53;;;;;;;23.85;22.35;;;;;;;14.75;55.48;100557.94;5032303;28;20171;-80
2023/03/22 08:48:19;;;;;;;23.83;22.40;;;;;;;14.75;55.63;100563.38;5033136;28;20030;-80
2023/03/22 08:50:44;;;;;;;23.15;21.85;;;;;;;14.77;55.86;100554.94;5032741;28;20025;-80
2023/03/22 08:53:10;;;;;;;22.13;20.85;;;;;;;14.74;55.62;100560.91;5033256;28;20038;-80
2023/03/22 08:55:36;;;;;;;22.75;21.40;;;;;;;14.74;55.42;100544.59;5033171;28;20030;-78
2023/03/22 08:58:03;;;;;;;23.00;21.75;;;;;;;14.78;55.50;100548.41;5031800;28;20033;-79
2023/03/22 09:00:28;;;;;;;23.15;21.85;;;;;;;14.80;55.70;100548.94;5032729;28;20085;-78
2023/03/22 09:02:54;;;;;;;22.20;20.92;;;;;;;14.82;55.43;100539.44;5033079;28;20034;-80
2023/03/22 09:05:19;;;;;;;24.05;22.58;;;;;;;14.79;55.82;100541.88;5032646;28;20057;-80
2023/03/22 09:07:45;;;;;;;20.67;19.58;;;;;;;14.81;55.39;100545.13;5032512;28;20040;-81
2023/03/22 09:10:10;;;;;;;21.95;20.67;;;;;;;14.82;55.72;100544.88;5032794;28;20053;-78
2023/03/22 09:12:36;;;;;;;22.85;21.65;;;;;;;14.85;55.34;100543.50;5032695;28;20037;-78
2023/03/22 09:15:03;;;;;;;24.08;22.50;;;;;;;14.85;55.49;100544.31;5032896;28;20112;-78
2023/03/22 09:17:28;;;;;;;23.27;21.92;;;;;;;14.87;55.82;100539.41;5031936;28;20076;-78
2023/03/22 09:19:53;;;;;;;22.23;21.10;;;;;;;14.88;55.57;100543.75;5032633;28;20025;-79
2023/03/22 09:22:19;;;;;;;23.25;21.80;;;;;;;14.92;55.81;100535.88;5032955;28;20030;-78
2023/03/22 09:24:44;;;;;;;21.23;20.13;;;;;;;14.92;55.74;100533.97;5032583;28;20026;-80
2023/03/22 09:27:10;;;;;;;23.20;21.45;;;;;;;14.91;55.60;100537.75;5033178;28;20042;-76
2023/03/22 09:29:35;;;;;;;23.73;22.23;;;;;;;14.95;55.94;100539.94;5033887;28;20033;-79
2023/03/22 09:32:00;;;;;;;22.20;21.05;;;;;;;14.96;55.57;100539.66;5018405;28;20401;-76
2023/03/22 09:34:26;;;;;;;23.88;22.27;;;;;;;14.91;55.94;100537.75;5035045;28;20041;-78
2023/03/22 09:36:52;;;;;;;22.40;21.20;;;;;;;14.92;56.28;100536.69;5036246;28;20087;-78
2023/03/22 09:39:18;;;;;;;23.00;21.48;;;;;;;14.98;56.01;100542.91;5035993;28;20041;-78
2023/03/22 09:41:48;;;;;;;23.27;21.85;;;;;;;14.98;55.95;100534.75;5036067;28;20530;-79
2023/03/22 09:44:37;;;;;;;23.50;21.75;;;;;;;14.92;55.94;100535.88;5035170;28;20037;-78
2023/03/22 09:47:04;;;;;;;23.65;22.20;;;;;;;14.98;56.10;100532.03;5035509;28;20021;-78
2023/03/22 09:49:38;;;;;;;23.80;22.33;;;;;;;14.96;56.14;100539.66;5036124;28;20048;-79
2023/03/22 09:52:10;;;;;;;23.25;21.70;;;;;;;14.99;56.01;100538.28;5035994;28;20462;-80
2023/03/22 09:54:41;;;;;;;24.85;23.40;;;;;;;14.97;55.83;100533.13;5034835;28;20029;-80
2023/03/22 09:57:18;;;;;;;23.58;22.27;;;;;;;14.98;55.87;100547.53;5036367;28;20084;-78
2023/03/22 10:00:32;;;;;;;24.17;22.88;;;;;;;14.99;56.19;100549.97;5036319;28;20044;-80
2023/03/22 10:03:15;;;;;;;22.70;21.48;;;;;;;14.97;55.88;100546.75;4974755;28;20031;-76
2023/03/22 10:05:41;;;;;;;24.90;23.60;;;;;;;14.98;56.34;100542.91;5030125;28;20084;-79
2023/03/22 10:08:31;;;;;;;24.05;22.75;;;;;;;15.03;55.98;100545.63;5035602;28;20033;-79
2023/03/22 10:10:58;;;;;;;24.33;22.95;;;;;;;15.06;55.80;100553.22;5035376;28;20405;-78
2023/03/22 10:14:00;;;;;;;26.13;24.63;;;;;;;15.04;56.29;100560.84;5035206;28;20578;-77
2023/03/22 10:16:31;;;;;;;24.75;23.25;;;;;;;15.07;56.01;100565.75;4998036;28;20037;-81
2023/03/22 10:19:06;;;;;;;22.13;20.95;;;;;;;15.08;56.15;100556.47;5035690;28;20037;-78
2023/03/22 10:21:35;;;;;;;23.23;21.92;;;;;;;15.08;56.11;100552.94;5051501;28;20401;-81
2023/03/22 10:24:15;;;;;;;21.67;20.30;;;;;;;15.12;55.99;100559.47;5035561;28;20112;-82
2023/03/22 10:26:44;;;;;;;24.70;23.30;;;;;;;15.12;56.15;100559.47;5035911;28;20021;-80
2023/03/22 10:29:22;;;;;;;21.95;20.85;;;;;;;15.15;56.19;100553.47;5035374;28;20116;-85
2023/03/22 10:31:47;;;;;;;23.13;21.85;;;;;;;15.12;56.37;100556.75;5034865;28;20469;-80
2023/03/22 10:34:20;;;;;;;24.13;22.73;;;;;;;15.12;56.52;100549.41;5035073;28;20048;-81
2023/03/22 10:36:49;;;;;;;23.73;22.33;;;;;;;15.10;56.65;100550.78;5035092;28;20026;-81
2023/03/22 10:39:28;;;;;;;22.23;20.92;;;;;;;15.14;56.68;100552.66;5035156;28;20112;-79
2023/03/22 10:41:55;;;;;;;21.02;19.95;;;;;;;15.22;56.48;100547.72;5016724;28;20045;-79
2023/03/22 10:44:24;;;;;;;25.58;24.17;;;;;;;15.26;56.53;100549.59;5035220;28;20026;-80
2023/03/22 10:46:51;;;;;;;24.65;23.05;;;;;;;15.27;56.24;100537.66;5035039;28;20030;-78
2023/03/22 10:49:35;;;;;;;24.08;22.80;;;;;;;15.28;56.54;100539.25;5050315;28;20029;-79
2023/03/22 10:52:23;;;;;;;23.52;22.25;;;;;;;15.26;56.53;100546.88;5035077;28;20029;-79
2023/03/22 10:54:51;;;;;;;24.08;22.55;;;;;;;15.30;56.62;100545.25;5035177;28;20090;-80
2023/03/22 10:57:17;;;;;;;22.52;21.42;;;;;;;15.31;56.72;100546.88;5035068;28;20025;-78
2023/03/22 10:59:54;;;;;;;23.48;22.17;;;;;;;15.30;56.57;100534.34;5033779;28;20497;-79
2023/03/22 11:02:30;;;;;;;23.20;21.90;;;;;;;15.33;56.50;100546.59;5035050;28;20084;-80
2023/03/22 11:05:02;;;;;;;22.45;21.25;;;;;;;15.32;56.77;100545.78;5035747;28;20275;-81
2023/03/22 11:07:34;;;;;;;23.70;22.42;;;;;;;15.33;56.76;100541.97;5035264;28;20465;-80
2023/03/22 11:10:03;;;;;;;22.50;21.30;;;;;;;15.35;56.76;100542.50;5035795;28;20068;-79
2023/03/22 11:12:28;;;;;;;22.65;21.45;;;;;;;15.37;56.43;100534.03;5033799;28;20033;-80
2023/03/22 11:14:55;;;;;;;21.90;20.80;;;;;;;15.37;57.00;100534.03;5035081;28;20446;-76
2023/03/22 11:17:24;;;;;;;23.45;21.77;;;;;;;15.40;56.72;100535.41;5035088;28;20029;-81
2023/03/22 11:19:54;;;;;;;24.42;23.02;;;;;;;15.39;57.02;100531.84;5034241;28;20037;-77
2023/03/22 11:22:35;;;;;;;23.08;21.90;;;;;;;15.38;57.03;100530.25;5034257;28;20091;-76
2023/03/22 11:25:02;;;;;;;23.65;22.15;;;;;;;15.39;56.77;100537.31;5033189;28;20390;-76
2023/03/22 11:27:31;;;;;;;24.88;23.58;;;;;;;15.40;56.83;100527.25;5034314;28;20064;-76